createdAt,value
2018-12-14T16:43:45.491Z,16.97
2018-12-14T16:46:12.333Z,15.67
2018-12-14T16:48:39.229Z,16.20
2018-12-14T16:51:06.117Z,14.77
2018-12-14T16:53:34.964Z,15.17
2018-12-14T16:56:01.815Z,15.97
2018-12-14T16:58:28.655Z,16.13
2018-12-14T17:00:55.554Z,14.23
2018-12-14T17:03:22.484Z,15.67
2018-12-14T17:05:49.435Z,13.67
2018-12-14T17:08:16.358Z,14.10
2018-12-14T17:10:43.216Z,14.93
2018-12-14T17:13:10.237Z,12.80
2018-12-14T17:15:37.106Z,14.90
2018-12-14T17:18:04.718Z,15.43
2018-12-14T17:20:31.804Z,16.17
2018-12-14T17:22:58.707Z,13.43
2018-12-14T17:25:25.553Z,14.20
2018-12-14T17:27:52.421Z,13.13
2018-12-14T17:30:19.319Z,16.30
2018-12-14T17:32:46.175Z,14.90
2018-12-14T17:35:13.061Z,14.23
2018-12-14T17:37:39.930Z,16.00
2018-12-14T17:40:06.861Z,14.47
2018-12-14T17:42:34.020Z,15.43
2018-12-14T17:45:00.871Z,14.37
2018-12-14T17:47:27.718Z,15.70
2018-12-14T17:49:54.623Z,15.33
2018-12-14T17:52:21.523Z,16.37
2018-12-14T17:54:48.370Z,15.87
2018-12-14T17:57:15.217Z,15.10
2018-12-14T17:59:42.102Z,17.30
2018-12-14T18:02:08.962Z,15.23
2018-12-14T18:04:35.817Z,15.53
2018-12-14T18:07:02.710Z,16.43
2018-12-14T18:09:29.552Z,18.67
2018-12-14T18:11:56.411Z,17.50
2018-12-14T18:14:23.335Z,20.43
2018-12-14T18:16:50.255Z,16.67
2018-12-14T18:19:19.002Z,18.30
2018-12-14T18:21:45.908Z,16.10
2018-12-14T18:24:12.751Z,18.63
2018-12-14T18:26:39.640Z,17.40
2018-12-14T18:29:06.557Z,17.27
2018-12-14T18:31:33.414Z,19.67
2018-12-14T18:34:00.310Z,16.77
2018-12-14T18:36:27.160Z,18.20
2018-12-14T18:38:54.043Z,19.53
2018-12-14T18:41:20.935Z,19.83
2018-12-14T18:43:47.802Z,20.50
2018-12-14T18:46:14.654Z,20.70
2018-12-14T18:48:41.558Z,21.17
2018-12-14T18:51:08.411Z,17.37
2018-12-14T18:53:35.333Z,18.93
2018-12-14T18:56:02.954Z,18.23
2018-12-14T18:58:29.802Z,17.73
2018-12-14T19:00:56.702Z,18.93
2018-12-14T19:03:23.607Z,18.77
2018-12-14T19:05:50.457Z,19.57
2018-12-14T19:08:17.369Z,18.43
2018-12-14T19:10:44.278Z,19.43
2018-12-14T19:13:11.133Z,20.30
2018-12-14T19:15:38.044Z,20.27
2018-12-14T19:18:04.899Z,21.50
2018-12-14T19:20:31.754Z,20.57
2018-12-14T19:22:58.653Z,22.07
2018-12-14T19:25:25.510Z,22.03
2018-12-14T19:27:52.363Z,18.57
2018-12-14T19:30:19.268Z,19.33
2018-12-14T19:32:46.120Z,19.70
2018-12-14T19:35:13.022Z,22.57
2018-12-14T19:37:41.518Z,21.33
2018-12-14T19:40:08.498Z,22.00
2018-12-14T19:42:35.354Z,22.13
2018-12-14T19:45:02.890Z,22.43
2018-12-14T19:47:29.920Z,20.73
2018-12-14T19:49:56.777Z,20.77
2018-12-14T19:52:23.676Z,21.47
2018-12-14T19:54:50.537Z,23.63
2018-12-14T19:57:17.397Z,22.83
2018-12-14T19:59:44.315Z,22.83
2018-12-14T20:02:11.177Z,24.17
2018-12-14T20:04:38.077Z,24.27
2018-12-14T20:07:04.981Z,27.10
2018-12-14T20:09:32.050Z,25.50
2018-12-14T20:11:58.937Z,25.47
2018-12-14T20:14:25.825Z,25.03
2018-12-14T20:16:52.691Z,24.13
2018-12-14T20:19:19.582Z,22.13
2018-12-14T20:21:46.425Z,22.93
2018-12-14T20:24:13.271Z,24.50
2018-12-14T20:26:40.166Z,25.20
2018-12-14T20:29:07.014Z,25.03
2018-12-14T20:31:33.862Z,20.57
2018-12-14T20:34:00.759Z,22.43
2018-12-14T20:36:27.889Z,24.43
2018-12-14T20:38:54.747Z,23.83
2018-12-14T20:41:21.601Z,27.47
2018-12-14T20:43:48.528Z,23.50
2018-12-14T20:46:19.298Z,20.67
2018-12-14T20:48:44.290Z,20.13
2018-12-14T20:51:11.206Z,22.27
2018-12-14T20:53:38.103Z,19.43
2018-12-14T20:56:05.013Z,20.47
2018-12-14T20:58:31.911Z,21.43
2018-12-14T21:00:58.766Z,21.73
2018-12-14T21:03:25.663Z,20.92
2018-12-14T21:05:52.526Z,21.77
2018-12-14T21:08:19.381Z,21.53
2018-12-14T21:10:46.269Z,25.73
2018-12-14T21:13:13.121Z,22.60
2018-12-14T21:15:40.008Z,24.33
2018-12-14T21:18:06.853Z,25.23
2018-12-14T21:20:33.741Z,27.10
2018-12-14T21:23:00.639Z,27.23
2018-12-14T21:25:27.800Z,29.53
2018-12-14T21:27:54.680Z,27.57
2018-12-14T21:30:21.535Z,24.60
2018-12-14T21:32:48.441Z,25.77
2018-12-14T21:35:15.289Z,25.87
2018-12-14T21:37:42.143Z,26.30
2018-12-14T21:40:09.057Z,28.73
2018-12-14T21:42:35.935Z,25.10
2018-12-14T21:45:02.807Z,26.00
2018-12-14T21:47:29.707Z,27.97
2018-12-14T21:49:56.547Z,26.23
2018-12-14T21:52:23.450Z,25.17
2018-12-14T21:54:50.301Z,26.30
2018-12-14T21:57:17.150Z,24.30
2018-12-14T21:59:44.041Z,23.67
2018-12-14T22:02:10.907Z,27.43
2018-12-14T22:04:37.794Z,27.17
2018-12-14T22:07:04.666Z,27.67
2018-12-14T22:09:31.569Z,27.03
2018-12-14T22:11:58.438Z,28.70
2018-12-14T22:14:25.284Z,29.43
2018-12-14T22:16:52.198Z,28.37
2018-12-14T22:19:19.065Z,27.20
2018-12-14T22:21:46.039Z,28.63
2018-12-14T22:24:12.900Z,27.47
2018-12-14T22:26:39.756Z,25.70
2018-12-14T22:29:06.933Z,26.50
2018-12-14T22:31:33.790Z,27.33
2018-12-14T22:34:00.659Z,28.20
2018-12-14T22:36:27.564Z,27.77
2018-12-14T22:38:54.442Z,26.43
2018-12-14T22:41:21.471Z,28.17
2018-12-14T22:43:48.379Z,27.33
2018-12-14T22:46:15.233Z,29.57
2018-12-14T22:48:42.126Z,26.10
2018-12-14T22:51:09.020Z,30.73
2018-12-14T22:53:35.861Z,27.93
2018-12-14T22:56:02.760Z,28.63
2018-12-14T22:58:29.621Z,27.70
2018-12-14T23:00:56.512Z,27.50
2018-12-14T23:03:23.415Z,25.07
2018-12-14T23:05:50.272Z,25.30
2018-12-14T23:08:17.164Z,25.50
2018-12-14T23:10:44.018Z,26.30
2018-12-14T23:13:10.910Z,26.50
